KABI

Abilene Regional Airport

Abilene, Texas, USA
METAR KABI 092052Z 32011KT 10SM CLR 08/M02 A3034 RMK AO2 SLP278 T00781017 56019
Observed Flight Rules
Dec-9 @ 20:52 UTC (49 minutes ago) Visual Flight Rules
Wind Visibility Clouds
320° at 11 knots 10 miles
  • Clear skies
Temperatures Readings
Current 8°C / 46°F
Dewpoint -2°C / 28°F
Humidity 50%
Altimeter 30.34" Hg
Pressure 1027.8 hPa
Elevation 548
METAR KABI 092052Z 32011KT 10SM CLR 08/M02 A3034 RMK AO2 SLP278 T00781017 56019
Observed Flight Rules
Dec-9 @ 20:52 UTC
(49 minutes ago)
VFR
Wind Visibility
320° at 11 knots 10 miles
Clouds
  • Clear skies
Temperature Dewpoint
8°C / 46°F -2°C / 28°F
Humidity Altimeter Pressure
50% 30.34" Hg 1027.8 hPa